N256VM SCVM-SCEL
Flight info
| Callsign | N256VM |
|---|---|
| Flight time | 0h 25m |
| Altitude | 8000 |
| Route | VM020 DCT OLMUE DCT EL222 DCT TEMUS |
| Aircraft | SR22/L-SDGRY/S |
Departure
| Time | 2026-04-23 23:29 |
|---|---|
| Airport | Viña del Mar Airport (SCVM) |
Arrival
| Time | 2026-04-23 23:54 |
|---|---|
| Airport | Comodoro Arturo Merino Benítez International Airport (SCEL) |
| Time | Latitude | Longitude | Altitude | Speed | Heading |
|---|---|---|---|---|---|
| 2026-04-23 23:02 | -32.95540 | -71.48361 | 461 ft | 0 kts | 40° |
| 2026-04-23 23:27 | -32.95514 | -71.48358 | 461 ft | 15 kts | 331° |
| 2026-04-23 23:27 | -32.95441 | -71.48574 | 459 ft | 12 kts | 351° |
| 2026-04-23 23:28 | -32.95382 | -71.48511 | 460 ft | 30 kts | 52° |
| 2026-04-23 23:28 | -32.94925 | -71.47830 | 492 ft | 113 kts | 51° |
| 2026-04-23 23:28 | -32.94406 | -71.47044 | 765 ft | 124 kts | 49° |
| 2026-04-23 23:28 | -32.94050 | -71.46500 | 997 ft | 126 kts | 51° |
| 2026-04-23 23:29 | -32.93334 | -71.45380 | 1446 ft | 128 kts | 53° |
| 2026-04-23 23:29 | -32.92965 | -71.44828 | 1698 ft | 128 kts | 55° |
| 2026-04-23 23:29 | -32.92446 | -71.43974 | 2083 ft | 126 kts | 71° |
| 2026-04-23 23:29 | -32.92315 | -71.42967 | 2450 ft | 123 kts | 90° |
| 2026-04-23 23:30 | -32.92173 | -71.41628 | 2942 ft | 123 kts | 84° |
| 2026-04-23 23:30 | -32.92084 | -71.40962 | 3177 ft | 123 kts | 84° |
| 2026-04-23 23:30 | -32.91944 | -71.39951 | 3534 ft | 124 kts | 83° |
| 2026-04-23 23:30 | -32.91801 | -71.38942 | 3885 ft | 124 kts | 84° |
| 2026-04-23 23:31 | -32.91660 | -71.37917 | 4247 ft | 125 kts | 83° |
| 2026-04-23 23:31 | -32.91521 | -71.36892 | 4618 ft | 125 kts | 83° |
| 2026-04-23 23:31 | -32.91383 | -71.35873 | 4986 ft | 126 kts | 83° |
| 2026-04-23 23:31 | -32.91244 | -71.34834 | 5345 ft | 127 kts | 83° |
| 2026-04-23 23:32 | -32.91107 | -71.33786 | 5702 ft | 128 kts | 82° |
| 2026-04-23 23:32 | -32.90971 | -71.32745 | 6048 ft | 129 kts | 82° |
| 2026-04-23 23:32 | -32.90829 | -71.31685 | 6401 ft | 130 kts | 81° |
| 2026-04-23 23:32 | -32.90687 | -71.30616 | 6742 ft | 131 kts | 80° |
| 2026-04-23 23:33 | -32.90543 | -71.29543 | 7076 ft | 132 kts | 80° |
| 2026-04-23 23:33 | -32.90402 | -71.28468 | 7411 ft | 133 kts | 80° |
| 2026-04-23 23:33 | -32.90260 | -71.27377 | 7751 ft | 134 kts | 79° |
| 2026-04-23 23:33 | -32.90118 | -71.26289 | 8096 ft | 134 kts | 79° |
| 2026-04-23 23:34 | -32.89973 | -71.25180 | 8452 ft | 135 kts | 79° |
| 2026-04-23 23:34 | -32.89824 | -71.24069 | 8808 ft | 136 kts | 78° |
| 2026-04-23 23:34 | -32.89677 | -71.22962 | 9166 ft | 137 kts | 78° |
| 2026-04-23 23:34 | -32.89528 | -71.21830 | 9530 ft | 138 kts | 78° |
| 2026-04-23 23:35 | -32.89378 | -71.20694 | 9914 ft | 139 kts | 78° |
| 2026-04-23 23:35 | -32.89229 | -71.19568 | 10261 ft | 139 kts | 78° |
| 2026-04-23 23:35 | -32.89077 | -71.18424 | 10606 ft | 140 kts | 78° |
| 2026-04-23 23:35 | -32.88925 | -71.17269 | 10940 ft | 144 kts | 78° |
| 2026-04-23 23:36 | -32.88749 | -71.15973 | 10911 ft | 168 kts | 79° |
| 2026-04-23 23:36 | -32.88562 | -71.14556 | 10936 ft | 181 kts | 79° |
| 2026-04-23 23:36 | -32.88367 | -71.13033 | 10913 ft | 190 kts | 79° |
| 2026-04-23 23:36 | -32.88163 | -71.11440 | 10842 ft | 198 kts | 79° |
| 2026-04-23 23:37 | -32.87953 | -71.09823 | 10764 ft | 202 kts | 79° |
| 2026-04-23 23:37 | -32.87741 | -71.08198 | 10672 ft | 185 kts | 79° |
| 2026-04-23 23:37 | -32.87543 | -71.06793 | 10543 ft | 163 kts | 78° |
| 2026-04-23 23:37 | -32.87359 | -71.05513 | 10423 ft | 151 kts | 78° |
| 2026-04-23 23:38 | -32.87191 | -71.04292 | 10164 ft | 151 kts | 78° |
| 2026-04-23 23:38 | -32.87029 | -71.03060 | 9912 ft | 150 kts | 79° |
| 2026-04-23 23:38 | -32.87092 | -71.01844 | 9646 ft | 150 kts | 108° |
| 2026-04-23 23:38 | -32.87625 | -71.00801 | 9393 ft | 142 kts | 128° |
| 2026-04-23 23:39 | -32.88240 | -70.99932 | 9122 ft | 132 kts | 129° |
| 2026-04-23 23:39 | -32.88815 | -70.99126 | 8850 ft | 126 kts | 129° |
| 2026-04-23 23:39 | -32.89375 | -70.98338 | 8581 ft | 122 kts | 129° |
| 2026-04-23 23:39 | -32.89911 | -70.97582 | 8321 ft | 119 kts | 129° |
| 2026-04-23 23:40 | -32.90433 | -70.96838 | 8060 ft | 116 kts | 129° |
| 2026-04-23 23:40 | -32.90922 | -70.96145 | 7970 ft | 102 kts | 127° |
| 2026-04-23 23:40 | -32.91423 | -70.95418 | 8017 ft | 126 kts | 127° |
| 2026-04-23 23:40 | -32.92019 | -70.94551 | 8021 ft | 142 kts | 128° |
| 2026-04-23 23:41 | -32.92673 | -70.93609 | 8020 ft | 150 kts | 128° |
| 2026-04-23 23:41 | -32.93349 | -70.92642 | 8013 ft | 154 kts | 128° |
| 2026-04-23 23:41 | -32.94028 | -70.91664 | 8011 ft | 155 kts | 128° |
| 2026-04-23 23:41 | -32.94720 | -70.90663 | 8011 ft | 156 kts | 128° |
| 2026-04-23 23:42 | -32.95416 | -70.89659 | 8009 ft | 157 kts | 128° |
| 2026-04-23 23:42 | -32.96103 | -70.88666 | 8007 ft | 156 kts | 128° |
| 2026-04-23 23:42 | -32.96792 | -70.87672 | 8008 ft | 156 kts | 128° |
| 2026-04-23 23:42 | -32.97479 | -70.86678 | 8010 ft | 156 kts | 128° |
| 2026-04-23 23:43 | -32.98172 | -70.85675 | 8012 ft | 157 kts | 128° |
| 2026-04-23 23:43 | -32.98867 | -70.84666 | 8012 ft | 157 kts | 128° |
| 2026-04-23 23:43 | -32.99563 | -70.83659 | 8011 ft | 158 kts | 128° |
| 2026-04-23 23:43 | -33.00335 | -70.82725 | 8003 ft | 160 kts | 147° |
| 2026-04-23 23:44 | -33.01394 | -70.82332 | 8000 ft | 161 kts | 174° |
| 2026-04-23 23:44 | -33.02500 | -70.82263 | 8006 ft | 161 kts | 178° |
| 2026-04-23 23:44 | -33.03626 | -70.82216 | 8007 ft | 161 kts | 178° |
| 2026-04-23 23:44 | -33.04747 | -70.82161 | 8012 ft | 161 kts | 178° |
| 2026-04-23 23:45 | -33.05870 | -70.82102 | 8013 ft | 161 kts | 178° |
| 2026-04-23 23:45 | -33.06991 | -70.82041 | 8010 ft | 161 kts | 178° |
| 2026-04-23 23:45 | -33.08093 | -70.81979 | 8008 ft | 160 kts | 178° |
| 2026-04-23 23:45 | -33.09207 | -70.81916 | 8006 ft | 160 kts | 178° |
| 2026-04-23 23:46 | -33.10315 | -70.81854 | 8008 ft | 159 kts | 178° |
| 2026-04-23 23:46 | -33.11427 | -70.81793 | 8010 ft | 160 kts | 178° |
| 2026-04-23 23:46 | -33.12529 | -70.81734 | 8011 ft | 160 kts | 178° |
| 2026-04-23 23:46 | -33.13646 | -70.81673 | 8007 ft | 160 kts | 178° |
| 2026-04-23 23:47 | -33.14761 | -70.81612 | 8008 ft | 160 kts | 178° |
| 2026-04-23 23:47 | -33.15872 | -70.81551 | 8010 ft | 160 kts | 178° |
| 2026-04-23 23:47 | -33.16984 | -70.81488 | 8008 ft | 160 kts | 178° |
| 2026-04-23 23:47 | -33.18082 | -70.81427 | 8008 ft | 160 kts | 178° |
| 2026-04-23 23:48 | -33.19179 | -70.81366 | 8003 ft | 146 kts | 178° |
| 2026-04-23 23:48 | -33.20098 | -70.81316 | 7954 ft | 119 kts | 178° |
| 2026-04-23 23:48 | -33.20837 | -70.81269 | 7920 ft | 95 kts | 178° |
| 2026-04-23 23:48 | -33.21534 | -70.81219 | 7526 ft | 112 kts | 176° |
| 2026-04-23 23:49 | -33.23281 | -70.81074 | 6632 ft | 134 kts | 175° |
| 2026-04-23 23:49 | -33.24191 | -70.80983 | 6288 ft | 130 kts | 175° |
| 2026-04-23 23:49 | -33.25094 | -70.80890 | 5870 ft | 131 kts | 175° |
| 2026-04-23 23:50 | -33.25978 | -70.80803 | 5555 ft | 124 kts | 175° |
| 2026-04-23 23:50 | -33.26824 | -70.80736 | 5256 ft | 119 kts | 176° |
| 2026-04-23 23:50 | -33.27631 | -70.80711 | 4981 ft | 113 kts | 179° |
| 2026-04-23 23:50 | -33.28397 | -70.80703 | 4770 ft | 102 kts | 181° |
| 2026-04-23 23:51 | -33.29052 | -70.80733 | 4638 ft | 90 kts | 180° |
| 2026-04-23 23:51 | -33.29662 | -70.80743 | 4435 ft | 87 kts | 179° |
| 2026-04-23 23:51 | -33.30266 | -70.80735 | 4229 ft | 85 kts | 178° |
| 2026-04-23 23:51 | -33.30847 | -70.80718 | 4022 ft | 84 kts | 177° |
| 2026-04-23 23:52 | -33.31468 | -70.80690 | 3884 ft | 99 kts | 176° |
| 2026-04-23 23:52 | -33.32193 | -70.80652 | 3834 ft | 111 kts | 176° |
| 2026-04-23 23:52 | -33.32970 | -70.80605 | 3573 ft | 118 kts | 175° |
| 2026-04-23 23:52 | -33.33796 | -70.80544 | 3191 ft | 122 kts | 176° |
| 2026-04-23 23:53 | -33.34615 | -70.80478 | 2701 ft | 109 kts | 175° |
| 2026-04-23 23:53 | -33.35315 | -70.80422 | 2313 ft | 96 kts | 179° |
| 2026-04-23 23:53 | -33.35958 | -70.80397 | 1982 ft | 90 kts | 176° |
| 2026-04-23 23:53 | -33.36548 | -70.80374 | 1827 ft | 84 kts | 179° |
| 2026-04-23 23:54 | -33.37171 | -70.80366 | 1631 ft | 93 kts | 177° |
| 2026-04-23 23:54 | -33.37799 | -70.80331 | 1559 ft | 87 kts | 177° |
| 2026-04-23 23:54 | -33.38314 | -70.80297 | 1555 ft | 62 kts | 178° |
| 2026-04-23 23:54 | -33.38687 | -70.80281 | 1556 ft | 47 kts | 178° |
| 2026-04-23 23:55 | -33.38989 | -70.80259 | 1555 ft | 42 kts | 175° |
| 2026-04-23 23:55 | -33.39264 | -70.80232 | 1554 ft | 39 kts | 160° |
| 2026-04-23 23:55 | -33.39477 | -70.80088 | 1554 ft | 17 kts | 144° |
| 2026-04-23 23:55 | -33.39498 | -70.80069 | 1554 ft | 0 kts | 143° |
| 2026-04-23 23:56 | -33.39500 | -70.80067 | 1554 ft | 2 kts | 142° |
| 2026-04-23 23:56 | -33.39523 | -70.80018 | 1554 ft | 11 kts | 94° |
| 2026-04-23 23:57 | -33.39532 | -70.79892 | 1562 ft | 19 kts | 88° |
| 2026-04-23 23:57 | -33.39520 | -70.79706 | 1562 ft | 25 kts | 84° |
| 2026-04-23 23:57 | -33.39519 | -70.79487 | 1565 ft | 28 kts | 93° |
| 2026-04-23 23:57 | -33.39516 | -70.79240 | 1566 ft | 31 kts | 81° |
| 2026-04-23 23:58 | -33.39491 | -70.79062 | 1566 ft | 0 kts | 76° |
| 2026-04-23 23:58 | -33.39463 | -70.78934 | 1568 ft | 25 kts | 56° |
| 2026-04-23 23:58 | -33.39301 | -70.78908 | 1568 ft | 25 kts | 336° |
| 2026-04-23 23:59 | -33.39249 | -70.78995 | 1567 ft | 0 kts | 260° |
| 2026-04-23 23:59 | -33.39249 | -70.78999 | 1567 ft | 2 kts | 259° |
| 2026-04-23 23:59 | -33.39252 | -70.79017 | 1567 ft | 0 kts | 259° |
| 2026-04-23 23:59 | -33.39252 | -70.79019 | 1567 ft | 0 kts | 259° |